Clayton, IL (62324)

8:02 AM CST on January 30, 2015 (GMT -0600)
Camp Point | Change Station
CLOSE
Current Station
Personal Weather Station
Location: Camp Point, IL
Elevation: 710 ft
Nearby Weather Stations
Active Advisory: Special Statement

Elev 710 ft 40.04 °N, 91.07 °W | Updated 1 minute ago

Clear
Clear
23.7 °F
Feels Like 24 °F
N
2.7
Wind Variable Wind from North
Gusts 4.9 mph

Today
High -- | Low -- °F
--% Chance of Precip.
Yesterday
High -- | Low -- °F
Precip. -- in
7:14 AM 5:20 PM
Waxing Gibbous, 83% visible
Pressure 30.56 in
Visibility 10.0 miles
Clouds Clear
Windchill 24 °F
Dew Point 6 °F
Humidity 46%
Rainfall 0.00 in
Snow Depth Not available.
UV 0 out of 12
Pollen .10 out of 12
Air Quality Not available.
Flu Activity Not available.
METAR KUIN 301354Z AUTO 03007KT 10SM CLR M06/M08 A3053 RMK AO2 SLP347 T10561083

More Conditions Fewer Conditions

Pressure 30.56 in
Visibility 10.0 miles
Clouds Clear
Windchill 24 °F
Dew Point 6 °F
Humidity 46%
Rainfall 0.00 in
Snow Depth Not available.
UV 0 out of 12
Pollen .10 out of 12
Air Quality Not available.
Flu Activity Not available.
METAR KUIN 301354Z AUTO 03007KT 10SM CLR M06/M08 A3053 RMK AO2 SLP347 T10561083

More Conditions Fewer Conditions

10-Day Weather Forecast

Almanac

Astronomy

Jan. 30, 2015 Rise Set
Actual Time
Civil Twilight
Nautical Twilight
Astronomical Twilight
Moon
Length of Visible Light
Length of Day
Tomorrow will be .
, % of the Moon is Illuminated

Today's Extremes

State Highs State Lows

Community

WunderPhotos

Upload Photos

1,791,761 photos uploaded!

WunderBlogs® & News

Nearby

Air Quality

  Air Quality AQ Index Pollutant
Not available.

Snow Depth

Station Depth Elevation

Earthquake Activity

City Distance Mag. Time & Date
Minimum magnitude displayed is 2.5.

Coastal Water Temperatures

Place Temperature

Nearby Weather Stations